Surface observations / UK / EGMC

Quebec | Canada | USA | France | UK | Europe | Elsewhere

Display: Info & Location for EGMC | Help decoding METAR

EGMC SOUTHEND-ON-SEA -- UK
Raw surface observations for station EGMC
EGMC 260450Z 00000KT CAVOK 08/06 Q1022=
EGMC 260420Z 19003KT CAVOK 08/07 Q1022=
EGMC 260350Z 26002KT CAVOK 08/06 Q1022=
EGMC 260250Z 24002KT CAVOK 10/07 Q1022=
EGMC 260050Z 26002KT CAVOK 10/07 Q1022=
EGMC 252350Z 24007KT CAVOK 11/08 Q1022=
EGMC 252250Z 23006KT CAVOK 10/06 Q1021=
EGMC 252220Z 23006KT CAVOK 12/08 Q1021=
EGMC 252150Z 23006KT CAVOK 12/07 Q1021=
EGMC 252120Z 23006KT CAVOK 13/07 Q1021=
EGMC 252050Z 24007KT CAVOK 14/07 Q1021=
EGMC 252020Z 24007KT CAVOK 13/06 Q1020=
EGMC 251950Z 24010KT CAVOK 15/06 Q1020=
EGMC 251920Z 24009KT CAVOK 15/06 Q1019=
EGMC 251850Z 24009KT CAVOK 15/07 Q1019=
EGMC 251820Z 23008KT CAVOK 15/07 Q1019=
EGMC 251750Z 23009KT CAVOK 16/07 Q1018=
EGMC 251720Z 25011KT CAVOK 17/06 Q1018=
EGMC 251650Z 25012KT CAVOK 19/06 Q1017=
EGMC 251620Z 25015KT CAVOK 20/06 Q1017=
EGMC 251550Z 24013KT CAVOK 19/05 Q1017=
EGMC 251520Z 25014KT CAVOK 20/05 Q1016=
EGMC 251450Z 24018KT CAVOK 21/06 Q1016=
EGMC 251420Z 24017KT CAVOK 20/05 Q1016=
EGMC 251350Z 24017KT 9999 FEW040TCU 20/06 Q1015=
EGMC 251320Z 24018KT 9999 FEW040 20/07 Q1015=
EGMC 251250Z 24018KT 9999 FEW035 20/09 Q1015=
EGMC 251220Z 24016KT 9999 FEW032 18/09 Q1014=
EGMC 251150Z 25014KT 9999 SCT032 18/10 Q1014=
EGMC 251120Z 25012KT 9999 FEW021 17/10 Q1014=
EGMC 251050Z 25014KT 9999 FEW021 17/10 Q1013=
EGMC 251020Z 25014KT 9999 FEW018 18/12 Q1013=
EGMC 250950Z 25014KT 9999 FEW018 17/12 Q1013=
EGMC 250920Z 24013KT 9999 FEW015 17/12 Q1013=
EGMC 250850Z 25012KT 9999 FEW016 17/13 Q1012=
EGMC 250820Z 25015KT 9999 FEW015 17/13 Q1012=
EGMC 250750Z 24013KT 9999 FEW015 18/14 Q1011=
EGMC 250720Z 23008KT 9999 -SHRA FEW017 SCT040 18/14 Q1011=
EGMC 250650Z 23010KT 9999 FEW019 18/13 Q1011=
EGMC 250620Z 22010KT 9999 FEW022 SCT034 18/14 Q1010=
EGMC 250550Z 18011KT CAVOK 18/13 Q1010=
EGMC 250520Z 17010KT CAVOK 17/13 Q1009=